createdAt,value
2017-12-01T00:00:22.517Z,1.72
2017-12-01T00:02:50.055Z,1.72
2017-12-01T00:05:17.657Z,1.73
2017-12-01T00:07:45.207Z,1.80
2017-12-01T00:10:12.833Z,1.75
2017-12-01T00:12:40.465Z,1.80
2017-12-01T00:15:07.994Z,1.80
2017-12-01T00:17:35.511Z,1.84
2017-12-01T00:20:03.060Z,1.83
2017-12-01T00:22:30.597Z,1.81
2017-12-01T00:24:58.127Z,1.86
2017-12-01T00:27:25.654Z,1.93
2017-12-01T00:29:53.173Z,1.93
2017-12-01T00:32:20.700Z,1.97
2017-12-01T00:34:48.229Z,1.97
2017-12-01T00:37:15.750Z,1.95
2017-12-01T00:39:43.280Z,1.95
2017-12-01T00:42:10.868Z,1.93
2017-12-01T00:44:38.397Z,1.96
2017-12-01T00:47:05.921Z,1.95
2017-12-01T00:49:33.455Z,1.98
2017-12-01T00:52:00.993Z,1.98
2017-12-01T00:54:28.508Z,2.05
2017-12-01T00:56:56.023Z,1.98
2017-12-01T00:59:23.562Z,2.00
2017-12-01T01:01:51.082Z,1.96
2017-12-01T01:04:18.647Z,1.91
2017-12-01T01:06:46.195Z,1.95
2017-12-01T01:09:13.831Z,1.97
2017-12-01T01:11:41.384Z,1.97
2017-12-01T01:14:08.919Z,1.99
2017-12-01T01:16:36.432Z,1.93
2017-12-01T01:19:03.970Z,1.93
2017-12-01T01:21:31.537Z,1.98
2017-12-01T01:23:59.088Z,1.99
2017-12-01T01:26:26.616Z,1.94
2017-12-01T01:28:54.134Z,1.91
2017-12-01T01:31:21.664Z,1.96
2017-12-01T01:33:49.192Z,1.94
2017-12-01T01:36:16.754Z,1.96
2017-12-01T01:38:44.297Z,2.03
2017-12-01T01:41:11.929Z,1.97
2017-12-01T01:43:39.451Z,1.94
2017-12-01T01:46:06.988Z,1.98
2017-12-01T01:48:34.512Z,1.97
2017-12-01T01:51:02.039Z,1.94
2017-12-01T01:53:29.579Z,1.96
2017-12-01T01:55:57.089Z,2.01
2017-12-01T01:58:24.612Z,2.01
2017-12-01T02:00:52.229Z,2.07
2017-12-01T02:03:19.764Z,1.94
2017-12-01T02:05:47.295Z,1.96
2017-12-01T02:08:14.825Z,1.99
2017-12-01T02:10:42.411Z,2.02
2017-12-01T02:13:09.979Z,1.96
2017-12-01T02:15:37.493Z,1.95
2017-12-01T02:18:05.025Z,2.00
2017-12-01T02:20:32.655Z,2.01
2017-12-01T02:23:00.182Z,2.12
2017-12-01T02:25:27.699Z,2.18
2017-12-01T02:27:55.300Z,2.13
2017-12-01T02:30:22.896Z,1.94
2017-12-01T02:32:50.464Z,2.05
2017-12-01T02:35:18.012Z,2.07
2017-12-01T02:37:45.549Z,2.10
2017-12-01T02:40:13.134Z,2.07
2017-12-01T02:42:40.662Z,2.05
2017-12-01T02:45:08.189Z,2.12
2017-12-01T02:47:35.736Z,2.16
2017-12-01T02:50:03.335Z,2.07
2017-12-01T02:52:30.866Z,2.05
2017-12-01T02:54:58.433Z,2.07
2017-12-01T02:57:25.978Z,2.06
2017-12-01T02:59:53.525Z,2.05
2017-12-01T04:24:18.076Z,1.84
2017-12-01T04:26:45.614Z,1.88
2017-12-01T04:29:13.190Z,1.86
2017-12-01T04:31:40.725Z,1.96
2017-12-01T04:34:08.253Z,2.01
2017-12-01T04:36:35.868Z,2.02
2017-12-01T04:39:03.389Z,2.01
2017-12-01T04:41:30.992Z,2.03
2017-12-01T04:43:58.552Z,2.01
2017-12-01T04:46:26.083Z,2.06
2017-12-01T04:48:53.617Z,2.06
2017-12-01T04:51:21.145Z,2.15
2017-12-01T04:53:49.305Z,2.15
2017-12-01T04:56:16.851Z,2.21
2017-12-01T04:58:44.368Z,2.19
2017-12-01T05:01:11.985Z,2.16
2017-12-01T05:03:39.508Z,2.14
2017-12-01T05:06:07.038Z,2.16
2017-12-01T05:08:34.562Z,2.22
2017-12-01T05:11:02.094Z,2.12
2017-12-01T05:13:29.617Z,2.09
2017-12-01T05:15:57.137Z,2.12
2017-12-01T05:18:24.656Z,2.15
2017-12-01T05:20:52.199Z,2.20
2017-12-01T05:23:20.312Z,2.17
2017-12-01T05:25:47.898Z,2.26
2017-12-01T05:28:15.552Z,2.22
2017-12-01T05:30:43.083Z,2.20
2017-12-01T05:33:10.596Z,2.26
2017-12-01T05:35:38.124Z,2.19
2017-12-01T05:38:05.690Z,2.27
2017-12-01T05:40:33.252Z,2.26
2017-12-01T05:43:00.776Z,2.28
2017-12-01T05:45:28.325Z,2.29
2017-12-01T05:47:55.869Z,2.22
2017-12-01T05:50:23.383Z,2.21
2017-12-01T05:52:50.919Z,2.16
2017-12-01T05:55:18.954Z,2.19
2017-12-01T05:57:47.407Z,2.18
2017-12-01T06:00:14.966Z,2.17
2017-12-01T06:02:42.489Z,2.14
2017-12-01T06:05:10.014Z,2.12
2017-12-01T06:07:37.538Z,2.05
2017-12-01T06:10:05.066Z,2.09
2017-12-01T06:12:32.580Z,2.10
2017-12-01T06:15:00.100Z,2.08
2017-12-01T06:17:27.673Z,2.09
2017-12-01T06:19:55.189Z,2.09
2017-12-01T06:22:22.712Z,2.10
2017-12-01T06:24:50.247Z,2.05
2017-12-01T06:27:17.770Z,1.96
2017-12-01T06:29:45.301Z,1.99
2017-12-01T06:32:12.963Z,2.02
2017-12-01T06:34:40.487Z,2.02
2017-12-01T06:37:08.012Z,1.92
2017-12-01T06:39:35.536Z,1.96
2017-12-01T06:42:03.070Z,1.93
2017-12-01T06:44:30.626Z,1.92
2017-12-01T06:46:58.187Z,1.81
2017-12-01T06:49:25.750Z,1.79
2017-12-01T06:51:53.271Z,1.84
2017-12-01T06:54:20.872Z,1.86
2017-12-01T06:56:48.398Z,1.91
2017-12-01T06:59:15.922Z,1.85
2017-12-01T07:01:43.537Z,1.84
2017-12-01T07:04:11.066Z,1.91
2017-12-01T07:06:38.598Z,1.86
2017-12-01T07:09:06.126Z,1.91
2017-12-01T07:11:33.645Z,1.93
2017-12-01T07:14:01.179Z,1.94
2017-12-01T07:16:28.706Z,1.92
2017-12-01T07:18:56.224Z,1.97
2017-12-01T07:21:23.826Z,2.05
2017-12-01T07:23:51.368Z,2.11
2017-12-01T07:26:30.722Z,2.13
2017-12-01T07:28:58.254Z,2.15
2017-12-01T07:31:25.792Z,2.25
2017-12-01T07:33:53.322Z,2.29
2017-12-01T07:36:20.865Z,2.42
2017-12-01T07:38:48.378Z,2.52
2017-12-01T07:41:15.912Z,2.49
2017-12-01T07:43:43.439Z,2.57
2017-12-01T07:46:11.001Z,2.74
2017-12-01T07:48:38.530Z,2.82
2017-12-01T07:51:06.321Z,2.85
2017-12-01T07:53:33.853Z,2.97
2017-12-01T07:56:01.366Z,3.11
2017-12-01T07:58:28.897Z,3.27
2017-12-01T08:00:56.445Z,3.37
2017-12-01T08:03:23.959Z,3.51
2017-12-01T08:05:51.483Z,3.61
2017-12-01T08:08:19.004Z,3.75
2017-12-01T08:10:46.545Z,3.55
2017-12-01T08:13:14.075Z,3.59
2017-12-01T08:15:53.517Z,3.68
2017-12-01T08:18:32.932Z,3.81
2017-12-01T08:21:01.397Z,3.67
2017-12-01T08:23:40.850Z,4.01
2017-12-01T08:26:08.394Z,4.02
2017-12-01T08:28:35.924Z,4.08
2017-12-01T08:31:03.458Z,3.80
2017-12-01T08:33:30.984Z,3.75
2017-12-01T08:35:58.527Z,3.81
2017-12-01T08:38:26.074Z,3.82
2017-12-01T08:40:53.746Z,3.50
2017-12-01T08:43:21.267Z,3.55
2017-12-01T08:45:48.789Z,3.62
2017-12-01T08:48:16.334Z,3.74
2017-12-01T08:50:43.884Z,3.79
2017-12-01T08:53:11.397Z,3.66
2017-12-01T08:55:38.924Z,3.62
2017-12-01T08:58:11.773Z,3.73
2017-12-01T09:00:40.532Z,3.82
2017-12-01T09:03:13.747Z,3.82
2017-12-01T09:05:44.704Z,4.13
2017-12-01T09:08:12.377Z,4.36
2017-12-01T09:10:39.954Z,4.31
2017-12-01T09:13:07.496Z,4.28
2017-12-01T09:15:35.023Z,4.23
2017-12-01T09:18:02.552Z,4.16
2017-12-01T09:20:30.087Z,4.14
2017-12-01T09:22:57.652Z,4.13
2017-12-01T09:25:25.220Z,4.09
2017-12-01T09:27:52.761Z,4.18
2017-12-01T09:30:20.380Z,4.03
2017-12-01T23:18:32.347Z,3.64
2017-12-01T23:21:00.718Z,3.49
2017-12-01T23:23:28.234Z,3.49
2017-12-01T23:25:55.750Z,3.42
2017-12-01T23:28:23.278Z,3.47
2017-12-01T23:30:50.808Z,3.46
2017-12-01T23:33:18.353Z,3.41
2017-12-01T23:35:45.865Z,3.46
2017-12-01T23:38:13.386Z,3.41
2017-12-01T23:40:40.915Z,3.40
2017-12-01T23:43:08.436Z,3.42
2017-12-01T23:45:36.030Z,3.41
2017-12-01T23:48:03.605Z,3.44
2017-12-01T23:50:31.114Z,3.44
2017-12-01T23:52:58.757Z,3.43
2017-12-01T23:55:26.413Z,3.46
2017-12-01T23:57:53.927Z,3.48
